Nuneaton, United Kingdom
Current Conditions -  °F | °C
As of 6:50 PM on Thursday 23 Oct 2014 (Local Time) from EGBE Reporting Station
Scattered Clouds Scattered Clouds  
Wind Chill: 59°   Ceiling: Unl
Heat Index: 59°   Visibility: 6mi
Dew Point: 55°   Wind: 13mph
Humidity: 88%   Direction: 210°SSW
Pressure: 29.94"   Gusts: NA
Location:  52.52°N, 1.47°W
Report Text: EGBE 231750Z 21011KT 9999 FEW014 SCT035 15/13 Q1014
Loading
Personal Weather Stations






























Interactive Weather Map
Tropical Storm Tracking
New forecast layout! Learn more

10-Day Weather Forecast

Advertisements
Track Severe Weather on mobile